Mathews, Louisiana
Current Conditions -  °F | °C
As of 10:50 AM on Thursday 27 Nov 2014 (Local Time) from KHUM Reporting Station
Clear Clear  
Wind Chill: 61°   Ceiling: Unl
Heat Index: 61°   Visibility: 7mi
Dew Point: 34°   Wind: 17mph
Humidity: 36%   Direction: 360°N
Pressure: 30.43"   Gusts: NA
Location:  29.69°N, 90.55°W
Report Text: KHUM 271650Z 36015KT 7SM SKC 16/01 A3043 RMK RY12/30 CLOSED ATIS D VA RY36 DV
Loading
Personal Weather Stations






























Interactive Weather Map New forecast layout! Learn more

10-Day Weather Forecast

Advertisements
Track Severe Weather on mobile